Time;durP1;ratioP1;P1;durP2;ratioP2;P2;SDS_P1;SDS_P2;PMS_P1;PMS_P2;Temp;Humidity;BMP_temperature;BMP_pressure;BME280_temperature;BME280_humidity;BME280_pressure;Samples;Min_cycle;Max_cycle;Signal;HPM_P1;HPM_P2
2021/12/08 00:00:55;;;;;;;4.43;2.70;;;7.20;99.90;;;;;;5019552;28;20438;-46
2021/12/08 00:03:22;;;;;;;6.53;2.40;;;7.30;99.90;;;;;;5020761;28;20768;-47
2021/12/08 00:05:48;;;;;;;2.60;2.37;;;7.30;99.90;;;;;;5020284;28;20473;-50
2021/12/08 00:08:16;;;;;;;7.10;2.30;;;7.40;99.90;;;;;;5018558;28;20451;-48
2021/12/08 00:13:19;;;;;;;3.43;2.23;;;7.50;99.90;;;;;;5019312;28;20508;-46
2021/12/08 00:15:51;;;;;;;3.23;2.23;;;7.50;99.90;;;;;;5020846;28;20443;-48
2021/12/08 00:18:22;;;;;;;2.37;2.17;;;7.50;99.90;;;;;;5021506;28;20457;-50
2021/12/08 00:20:48;;;;;;;3.80;2.17;;;7.60;99.90;;;;;;5021960;28;20534;-50
2021/12/08 00:23:15;;;;;;;3.20;2.47;;;7.70;99.90;;;;;;5021052;28;21703;-48
2021/12/08 00:25:42;;;;;;;4.20;2.97;;;7.70;99.90;;;;;;5017082;28;20453;-47
2021/12/08 00:28:08;;;;;;;2.23;2.03;;;7.90;99.90;;;;;;5020605;28;20529;-46
2021/12/08 00:30:36;;;;;;;3.70;2.23;;;7.90;99.90;;;;;;5017927;28;20989;-48
2021/12/08 00:33:02;;;;;;;3.60;2.43;;;7.90;99.90;;;;;;5019609;28;20192;-45
2021/12/08 00:35:28;;;;;;;4.30;2.20;;;7.60;99.90;;;;;;5019237;28;20797;-46
2021/12/08 00:37:55;;;;;;;5.80;2.40;;;7.40;99.90;;;;;;5020165;28;20845;-50
2021/12/08 00:40:23;;;;;;;4.50;2.70;;;7.40;99.90;;;;;;5018365;28;20770;-48
2021/12/08 00:42:49;;;;;;;6.40;2.40;;;7.70;99.90;;;;;;5017932;28;20924;-50
2021/12/08 00:45:18;;;;;;;2.73;2.50;;;7.60;99.90;;;;;;5020231;28;20442;-48
2021/12/08 00:47:45;;;;;;;3.33;2.63;;;7.70;99.90;;;;;;5020381;28;20497;-48
2021/12/08 00:50:12;;;;;;;3.17;2.53;;;7.60;99.90;;;;;;5018144;28;20462;-47
2021/12/08 00:52:38;;;;;;;5.30;2.53;;;7.40;99.90;;;;;;5002181;28;21163;-46
2021/12/08 00:55:10;;;;;;;3.63;2.73;;;7.40;99.90;;;;;;5022214;28;20656;-47
2021/12/08 00:57:35;;;;;;;2.63;2.17;;;7.30;99.90;;;;;;5018992;28;20459;-45
2021/12/08 01:00:08;;;;;;;2.80;2.17;;;7.40;99.90;;;;;;5017612;28;20461;-49
2021/12/08 01:02:38;;;;;;;3.03;2.40;;;7.30;99.90;;;;;;5020264;28;20326;-49
2021/12/08 01:05:12;;;;;;;3.10;2.43;;;7.20;99.90;;;;;;5020321;28;20445;-49
2021/12/08 01:07:37;;;;;;;3.77;2.43;;;7.40;99.90;;;;;;5019451;28;20471;-46
2021/12/08 01:10:11;;;;;;;5.20;2.90;;;7.50;99.90;;;;;;5019289;28;20435;-46
2021/12/08 01:12:36;;;;;;;4.90;2.70;;;7.60;99.90;;;;;;5020550;28;20185;-47
2021/12/08 01:15:04;;;;;;;5.60;3.30;;;7.60;99.90;;;;;;5021586;28;20947;-48
2021/12/08 01:17:30;;;;;;;6.83;2.80;;;7.40;99.90;;;;;;5019003;28;20454;-49
2021/12/08 01:19:55;;;;;;;10.33;3.40;;;7.30;99.90;;;;;;5020589;28;20848;-49
2021/12/08 01:22:21;;;;;;;4.50;2.93;;;7.20;99.90;;;;;;5021566;28;20557;-51
2021/12/08 01:24:47;;;;;;;2.97;2.67;;;7.10;99.90;;;;;;5016621;28;20253;-46
2021/12/08 01:27:12;;;;;;;7.07;3.23;;;7.20;99.90;;;;;;5022969;28;20204;-44
2021/12/08 01:29:39;;;;;;;3.77;3.13;;;7.10;99.90;;;;;;5020156;28;20185;-47
2021/12/08 01:32:06;;;;;;;5.70;3.63;;;7.10;99.90;;;;;;5019088;28;20195;-48
2021/12/08 01:34:32;;;;;;;5.37;3.20;;;6.90;99.90;;;;;;5020374;28;20549;-49
2021/12/08 01:36:58;;;;;;;4.13;3.20;;;6.70;99.90;;;;;;5019654;28;20526;-48
2021/12/08 01:39:23;;;;;;;6.63;3.93;;;6.60;99.90;;;;;;5019578;28;20843;-46
2021/12/08 01:41:52;;;;;;;8.57;4.00;;;6.40;99.90;;;;;;5021241;28;20664;-46
2021/12/08 01:47:02;;;;;;;4.60;3.60;;;6.40;99.90;;;;;;5024779;28;20469;-50
2021/12/08 01:49:28;;;;;;;6.97;3.87;;;5.90;99.90;;;;;;5021553;28;20433;-50
2021/12/08 01:51:53;;;;;;;7.90;4.50;;;5.90;99.90;;;;;;5021339;28;20423;-48
2021/12/08 01:54:19;;;;;;;6.77;4.67;;;5.80;99.90;;;;;;5021665;28;20188;-47
2021/12/08 01:56:45;;;;;;;3.80;3.40;;;5.80;99.90;;;;;;5024618;28;20706;-47
2021/12/08 01:59:11;;;;;;;5.67;4.20;;;5.80;99.90;;;;;;5023344;28;20744;-49
2021/12/08 02:01:41;;;;;;;6.30;3.80;;;5.90;99.90;;;;;;5019435;28;20444;-51
2021/12/08 02:04:07;;;;;;;4.73;4.17;;;5.80;99.90;;;;;;5019853;28;20817;-47
2021/12/08 02:06:41;;;;;;;8.93;3.57;;;5.70;99.90;;;;;;5021181;28;20467;-48
2021/12/08 02:09:10;;;;;;;6.23;3.87;;;5.90;99.90;;;;;;5020414;28;20265;-45
2021/12/08 02:11:40;;;;;;;4.07;3.23;;;5.80;99.90;;;;;;5021036;28;20877;-47
2021/12/08 02:14:07;;;;;;;4.77;3.57;;;5.90;99.90;;;;;;5021571;28;20431;-46
2021/12/08 02:16:33;;;;;;;3.67;3.10;;;6.10;99.90;;;;;;5020295;28;20525;-49
2021/12/08 02:18:59;;;;;;;9.30;3.43;;;6.20;99.90;;;;;;5023124;28;20613;-50
2021/12/08 02:21:33;;;;;;;8.10;3.80;;;6.20;99.90;;;;;;5020475;28;20470;-47
2021/12/08 02:24:04;;;;;;;5.57;3.90;;;6.40;99.90;;;;;;5021978;28;21629;-46
2021/12/08 02:26:31;;;;;;;5.77;3.40;;;6.30;99.90;;;;;;5021792;28;20478;-47
2021/12/08 02:29:00;;;;;;;4.70;2.90;;;6.20;99.90;;;;;;5022477;28;20447;-46
2021/12/08 02:31:35;;;;;;;6.50;3.77;;;6.10;99.90;;;;;;5019692;28;20514;-46
2021/12/08 02:47:53;;;;;;;3.30;3.00;;;6.50;99.90;;;;;;5022477;28;20488;-44
2021/12/08 02:50:34;;;;;;;4.67;3.40;;;6.30;99.90;;;;;;5021786;28;21048;-46
2021/12/08 02:53:02;;;;;;;5.90;3.97;;;6.40;99.90;;;;;;5020999;28;20427;-45
2021/12/08 02:55:31;;;;;;;6.20;3.67;;;6.40;99.90;;;;;;5018650;28;20431;-45
2021/12/08 02:58:00;;;;;;;6.57;4.00;;;6.70;99.90;;;;;;5020727;28;20458;-47
2021/12/08 03:00:28;;;;;;;5.47;3.93;;;6.60;99.90;;;;;;4997822;28;20815;-44
2021/12/08 03:02:57;;;;;;;5.27;4.10;;;6.70;99.90;;;;;;5019318;28;20435;-48
2021/12/08 03:05:23;;;;;;;4.90;3.80;;;6.70;99.90;;;;;;5023582;28;20815;-46
2021/12/08 03:07:48;;;;;;;5.57;3.87;;;6.90;99.90;;;;;;5024120;28;20459;-46
2021/12/08 03:10:17;;;;;;;5.40;3.80;;;7.00;99.90;;;;;;5021664;28;20475;-50
2021/12/08 03:12:43;;;;;;;4.37;3.60;;;6.80;99.90;;;;;;5018437;28;20181;-47
2021/12/08 03:15:11;;;;;;;5.27;3.47;;;6.90;99.90;;;;;;5022111;28;20439;-49
2021/12/08 03:17:37;;;;;;;5.70;4.27;;;6.70;99.90;;;;;;5020661;28;20458;-48
2021/12/08 03:20:06;;;;;;;6.53;3.93;;;6.50;99.90;;;;;;5022304;28;20807;-51
2021/12/08 03:22:36;;;;;;;5.00;4.13;;;6.60;99.90;;;;;;5019126;28;20446;-49
2021/12/08 03:25:05;;;;;;;6.27;4.33;;;6.80;99.90;;;;;;5021204;28;20459;-51
2021/12/08 03:27:37;;;;;;;6.93;3.57;;;6.70;99.90;;;;;;5020279;28;20831;-46
2021/12/08 03:30:14;;;;;;;5.60;3.73;;;6.80;99.90;;;;;;5002487;28;21003;-45
2021/12/08 03:32:40;;;;;;;6.43;4.10;;;7.00;99.90;;;;;;5020303;28;20433;-48
2021/12/08 03:35:12;;;;;;;4.10;3.57;;;7.10;99.90;;;;;;5020410;28;20431;-51
2021/12/08 03:37:45;;;;;;;4.60;3.60;;;7.00;99.90;;;;;;5020626;28;20690;-47
2021/12/08 03:40:29;;;;;;;3.93;3.40;;;7.00;99.90;;;;;;5016392;28;20454;-47
2021/12/08 03:42:57;;;;;;;9.47;3.80;;;7.00;99.90;;;;;;5020178;28;20466;-46
2021/12/08 03:45:31;;;;;;;7.37;4.03;;;7.10;99.90;;;;;;5020499;28;20508;-45
2021/12/08 03:48:02;;;;;;;7.90;3.97;;;7.10;99.90;;;;;;5020432;28;20618;-47
2021/12/08 03:50:30;;;;;;;4.67;4.13;;;7.20;99.90;;;;;;5021051;28;20438;-53
2021/12/08 03:52:58;;;;;;;5.00;3.90;;;7.00;99.90;;;;;;5018950;28;20692;-47
2021/12/08 03:55:24;;;;;;;5.93;3.87;;;7.00;99.90;;;;;;5000838;28;20453;-44
2021/12/08 03:57:50;;;;;;;5.27;4.30;;;7.10;99.90;;;;;;5021910;28;20462;-46
2021/12/08 04:00:18;;;;;;;6.60;3.77;;;7.20;99.90;;;;;;5020941;28;20462;-45
2021/12/08 04:02:44;;;;;;;7.50;4.17;;;7.10;99.90;;;;;;5016630;28;20215;-48
2021/12/08 04:05:11;;;;;;;6.70;3.70;;;6.90;99.90;;;;;;5022061;28;20423;-50
2021/12/08 04:07:43;;;;;;;5.60;4.03;;;7.10;99.90;;;;;;5000653;28;21042;-49
2021/12/08 04:10:16;;;;;;;9.40;4.60;;;6.90;99.90;;;;;;5019974;28;20440;-50
2021/12/08 04:12:42;;;;;;;7.43;4.87;;;7.00;99.90;;;;;;5020306;28;20434;-48
2021/12/08 04:15:08;;;;;;;7.47;4.03;;;7.00;99.90;;;;;;5021555;28;20439;-48
2021/12/08 04:17:41;;;;;;;5.50;4.30;;;7.10;99.90;;;;;;5020398;28;20827;-47
2021/12/08 04:20:13;;;;;;;5.77;4.43;;;7.10;99.90;;;;;;5022598;28;20757;-47
2021/12/08 04:22:41;;;;;;;5.23;4.53;;;7.00;99.90;;;;;;5018332;28;20870;-46
2021/12/08 04:25:12;;;;;;;6.33;4.30;;;6.90;99.90;;;;;;5021124;28;20812;-45
2021/12/08 04:27:41;;;;;;;6.50;4.30;;;6.90;99.90;;;;;;5019586;28;20473;-47
2021/12/08 04:30:29;;;;;;;5.20;4.70;;;7.00;99.90;;;;;;5019757;28;20423;-50
2021/12/08 04:32:55;;;;;;;5.13;3.87;;;6.60;99.90;;;;;;5021265;28;20477;-50
2021/12/08 04:35:22;;;;;;;5.30;4.80;;;6.50;99.90;;;;;;5019607;28;20432;-48
2021/12/08 04:37:53;;;;;;;5.43;4.67;;;6.60;99.90;;;;;;5019265;28;20450;-48
2021/12/08 04:40:39;;;;;;;5.97;4.40;;;6.50;99.90;;;;;;5018529;28;20435;-47
2021/12/08 04:43:16;;;;;;;7.27;6.00;;;6.20;99.90;;;;;;5017646;28;20439;-49
2021/12/08 04:45:58;;;;;;;7.10;5.40;;;6.30;99.90;;;;;;5018821;28;20809;-47
2021/12/08 04:48:46;;;;;;;8.53;5.20;;;6.20;99.90;;;;;;5015540;28;20470;-49
2021/12/08 05:02:36;;;;;;;7.47;6.00;;;5.90;99.90;;;;;;5017497;28;20574;-46
2021/12/08 05:07:50;;;;;;;7.17;5.43;;;6.00;99.90;;;;;;5011869;28;20532;-48
2021/12/08 05:10:22;;;;;;;7.27;5.87;;;5.90;99.90;;;;;;5015688;28;20919;-46
2021/12/08 05:12:50;;;;;;;6.90;5.97;;;5.70;99.90;;;;;;5021186;28;20420;-46
2021/12/08 05:15:22;;;;;;;7.03;6.07;;;5.70;99.90;;;;;;5019010;28;20940;-50
2021/12/08 05:17:54;;;;;;;6.43;5.30;;;5.90;99.90;;;;;;5001384;28;20466;-47
2021/12/08 05:20:47;;;;;;;8.90;6.77;;;6.10;99.90;;;;;;5021911;28;20438;-52
2021/12/08 05:23:45;;;;;;;12.67;6.87;;;6.10;99.90;;;;;;5024057;28;20576;-49
2021/12/08 05:26:24;;;;;;;8.20;5.30;;;6.20;99.90;;;;;;5011178;28;20471;-48
2021/12/08 05:28:53;;;;;;;8.07;5.50;;;6.30;99.90;;;;;;5024320;28;20438;-49
2021/12/08 05:31:24;;;;;;;6.70;5.53;;;6.40;99.90;;;;;;5023247;28;20426;-49
2021/12/08 05:33:52;;;;;;;8.17;5.23;;;6.30;99.90;;;;;;5025256;28;20454;-46
2021/12/08 05:36:19;;;;;;;7.33;5.30;;;6.40;99.90;;;;;;5022657;28;20442;-46
2021/12/08 05:38:45;;;;;;;8.13;4.80;;;6.70;99.90;;;;;;5021557;28;20454;-48
2021/12/08 05:41:21;;;;;;;6.17;4.73;;;6.70;99.90;;;;;;5024650;28;20459;-47
2021/12/08 05:43:48;;;;;;;6.10;4.50;;;6.90;99.90;;;;;;5022503;28;20958;-48
2021/12/08 05:46:16;;;;;;;7.80;4.73;;;6.90;99.90;;;;;;5023146;28;20530;-50
2021/12/08 05:48:45;;;;;;;7.17;4.37;;;6.80;99.90;;;;;;5023561;28;20458;-49
2021/12/08 05:51:21;;;;;;;7.20;4.23;;;7.00;99.90;;;;;;5022783;28;20434;-48
2021/12/08 05:53:52;;;;;;;5.07;3.93;;;7.00;99.90;;;;;;5023521;28;20514;-46
2021/12/08 05:56:19;;;;;;;4.10;3.40;;;7.00;99.90;;;;;;5022691;28;20426;-47
2021/12/08 05:58:46;;;;;;;7.50;4.07;;;7.10;99.90;;;;;;5021476;28;20462;-50
2021/12/08 06:01:30;;;;;;;6.00;3.93;;;7.20;99.90;;;;;;5023432;28;20804;-46
2021/12/08 06:03:57;;;;;;;5.40;4.77;;;7.20;99.90;;;;;;5022181;28;20443;-49
2021/12/08 06:06:23;;;;;;;5.10;3.90;;;7.10;99.90;;;;;;5021848;28;20465;-50
2021/12/08 06:08:49;;;;;;;5.57;4.03;;;7.10;99.90;;;;;;5023923;28;20494;-48
2021/12/08 06:11:15;;;;;;;5.23;4.40;;;7.20;99.90;;;;;;5023294;28;20779;-47
2021/12/08 06:13:46;;;;;;;5.10;3.80;;;6.90;99.90;;;;;;5021009;28;20432;-46
2021/12/08 06:16:13;;;;;;;8.20;4.60;;;6.60;99.90;;;;;;5021162;28;20514;-48
2021/12/08 06:18:40;;;;;;;4.00;3.50;;;6.80;99.90;;;;;;5005755;28;20474;-49
2021/12/08 06:21:13;;;;;;;5.80;4.07;;;7.00;99.90;;;;;;5020628;28;20431;-46
2021/12/08 06:23:39;;;;;;;6.10;4.00;;;7.00;99.90;;;;;;5024177;28;20441;-47
2021/12/08 06:26:07;;;;;;;5.57;4.27;;;7.10;99.90;;;;;;5021102;28;20463;-46
2021/12/08 06:28:33;;;;;;;7.47;4.67;;;7.10;99.90;;;;;;5022485;28;20455;-46
2021/12/08 06:30:58;;;;;;;4.90;4.30;;;7.20;99.90;;;;;;5019915;28;20429;-47
2021/12/08 06:33:26;;;;;;;11.30;4.03;;;7.20;99.90;;;;;;5021425;28;20847;-51
2021/12/08 06:36:04;;;;;;;10.00;4.47;;;7.30;99.90;;;;;;5023724;28;20180;-49
2021/12/08 06:38:30;;;;;;;6.70;4.20;;;7.20;99.90;;;;;;5019883;28;20450;-48
2021/12/08 06:41:11;;;;;;;7.03;3.77;;;7.20;99.90;;;;;;5022648;28;20430;-52
2021/12/08 06:43:42;;;;;;;5.97;3.77;;;7.20;99.90;;;;;;5021530;28;20184;-48
2021/12/08 06:46:08;;;;;;;6.80;3.80;;;7.20;99.90;;;;;;5023983;28;20456;-47
2021/12/08 06:48:45;;;;;;;7.33;4.30;;;7.10;99.90;;;;;;5006002;28;20512;-48
2021/12/08 06:51:19;;;;;;;7.03;4.80;;;7.00;99.90;;;;;;5019570;28;20952;-48
2021/12/08 06:53:49;;;;;;;5.97;4.67;;;6.80;99.90;;;;;;5024996;28;20439;-48
2021/12/08 06:56:29;;;;;;;6.57;4.50;;;7.00;99.90;;;;;;5023154;28;20439;-48
2021/12/08 06:59:00;;;;;;;5.47;4.30;;;7.10;99.90;;;;;;5020362;28;20450;-50
2021/12/08 07:07:31;;;;;;;5.50;4.53;;;7.20;99.90;;;;;;5019976;28;20479;-46
2021/12/08 07:09:59;;;;;;;6.17;5.27;;;7.20;99.90;;;;;;5021889;28;20484;-48
2021/12/08 07:12:43;;;;;;;7.47;4.03;;;7.30;99.90;;;;;;5020343;28;20195;-46
2021/12/08 07:15:17;;;;;;;8.90;4.70;;;7.30;99.90;;;;;;5020991;28;20438;-47
2021/12/08 07:17:46;;;;;;;6.00;4.90;;;7.40;99.90;;;;;;5020713;28;20840;-49
2021/12/08 07:20:41;;;;;;;7.00;6.17;;;7.50;99.90;;;;;;5022454;28;20439;-51
2021/12/08 07:23:28;;;;;;;7.97;5.43;;;7.50;99.90;;;;;;5021449;28;20601;-45
2021/12/08 07:25:57;;;;;;;12.63;7.60;;;7.30;99.90;;;;;;5019817;28;20446;-47
2021/12/08 07:28:26;;;;;;;8.43;6.40;;;7.40;99.90;;;;;;5022038;28;20455;-47
2021/12/08 07:31:04;;;;;;;10.63;6.40;;;7.40;99.90;;;;;;5018856;28;20531;-47
2021/12/08 07:33:30;;;;;;;9.20;5.40;;;7.40;99.90;;;;;;5023728;28;20455;-48
2021/12/08 07:36:00;;;;;;;4.87;4.37;;;7.30;99.90;;;;;;5017949;28;20431;-48
2021/12/08 07:38:28;;;;;;;6.83;4.80;;;7.40;99.90;;;;;;5019859;28;20934;-50
2021/12/08 07:41:06;;;;;;;12.20;5.63;;;7.20;99.90;;;;;;5018907;28;20800;-51
2021/12/08 07:43:34;;;;;;;11.07;5.83;;;7.20;99.90;;;;;;5019542;28;20895;-49
2021/12/08 07:46:05;;;;;;;8.10;5.30;;;7.10;99.90;;;;;;5020711;28;20474;-49
2021/12/08 07:48:39;;;;;;;8.37;5.40;;;7.20;99.90;;;;;;5017306;28;20508;-48
2021/12/08 07:51:11;;;;;;;8.10;5.30;;;7.20;99.90;;;;;;5018033;28;20443;-46
2021/12/08 07:53:37;;;;;;;7.83;5.60;;;7.30;99.90;;;;;;4996209;28;20412;-50
2021/12/08 07:56:08;;;;;;;7.80;4.60;;;7.40;99.90;;;;;;5016226;28;20431;-48
2021/12/08 07:58:36;;;;;;;5.90;4.97;;;7.40;99.90;;;;;;5017388;28;20291;-46
2021/12/08 08:01:15;;;;;;;10.30;5.33;;;7.20;99.90;;;;;;5017010;28;20435;-45
2021/12/08 08:03:41;;;;;;;9.70;5.70;;;7.20;99.90;;;;;;5016168;28;20531;-46
2021/12/08 08:06:16;;;;;;;6.30;5.30;;;7.30;99.90;;;;;;5016312;28;20793;-46
2021/12/08 08:08:44;;;;;;;6.90;5.37;;;7.20;99.90;;;;;;4999950;28;20557;-47
2021/12/08 08:11:29;;;;;;;6.10;4.90;;;7.10;99.90;;;;;;5015976;28;20434;-48
2021/12/08 08:13:55;;;;;;;10.27;5.53;;;7.20;99.90;;;;;;5020266;28;20419;-50
2021/12/08 08:16:25;;;;;;;17.80;9.53;;;7.30;99.90;;;;;;5003836;28;21258;-45
2021/12/08 08:18:59;;;;;;;16.73;10.20;;;7.40;99.90;;;;;;5017587;28;20999;-48
2021/12/08 08:21:29;;;;;;;17.20;8.20;;;7.40;99.90;;;;;;5017527;28;20467;-49
2021/12/08 08:23:58;;;;;;;14.87;7.03;;;7.30;99.90;;;;;;5024228;28;20809;-46
2021/12/08 08:26:24;;;;;;;12.17;7.90;;;7.10;99.90;;;;;;5018093;28;20469;-48
2021/12/08 08:28:52;;;;;;;10.37;7.00;;;7.00;99.90;;;;;;5018909;28;20858;-47
2021/12/08 08:31:33;;;;;;;8.20;6.10;;;7.20;99.90;;;;;;5020402;28;20465;-49
2021/12/08 08:34:00;;;;;;;7.17;6.30;;;7.10;99.90;;;;;;5018032;28;20530;-51
2021/12/08 08:36:31;;;;;;;11.10;7.80;;;6.80;99.90;;;;;;5018708;28;20430;-49
2021/12/08 08:39:17;;;;;;;9.70;6.87;;;6.80;99.90;;;;;;5017890;28;20965;-46
2021/12/08 08:41:47;;;;;;;12.83;8.10;;;6.80;99.90;;;;;;5018277;28;20439;-49
2021/12/08 08:44:20;;;;;;;9.40;6.27;;;7.10;99.90;;;;;;4994478;28;20819;-48
2021/12/08 08:46:47;;;;;;;13.20;7.17;;;7.30;99.90;;;;;;5016371;28;20915;-46
2021/12/08 08:49:22;;;;;;;9.13;6.90;;;7.40;99.90;;;;;;5020210;28;20551;-47
2021/12/08 08:52:00;;;;;;;8.57;7.17;;;7.40;99.90;;;;;;5022237;28;20435;-46
2021/12/08 08:54:30;;;;;;;9.43;7.47;;;7.50;99.90;;;;;;5023216;28;20836;-45
2021/12/08 08:57:12;;;;;;;11.57;7.47;;;7.60;99.90;;;;;;5006479;28;20651;-46
2021/12/08 08:59:44;;;;;;;14.97;8.77;;;7.70;99.90;;;;;;5023764;28;20442;-49
2021/12/08 09:02:37;;;;;;;12.10;9.37;;;7.90;99.90;;;;;;5023363;28;21952;-49
2021/12/08 09:05:08;;;;;;;17.03;9.80;;;8.00;99.90;;;;;;5023111;28;20447;-45
2021/12/08 09:07:39;;;;;;;14.17;8.50;;;8.00;99.90;;;;;;5022885;28;20555;-47
2021/12/08 09:10:21;;;;;;;11.27;8.10;;;8.00;99.90;;;;;;5021437;28;21007;-51
2021/12/08 09:13:22;;;;;;;8.90;7.30;;;7.90;99.90;;;;;;5020599;28;20541;-45
2021/12/08 09:16:04;;;;;;;10.00;7.00;;;8.00;99.90;;;;;;5021395;28;20827;-44
2021/12/08 09:18:47;;;;;;;12.80;8.30;;;7.80;99.90;;;;;;5024154;28;21125;-48
2021/12/08 09:21:19;;;;;;;13.30;8.03;;;7.70;99.90;;;;;;5020773;28;20473;-47
2021/12/08 09:24:08;;;;;;;10.47;8.37;;;7.80;99.90;;;;;;5021199;28;20464;-47
2021/12/08 09:26:37;;;;;;;10.70;7.83;;;8.00;99.90;;;;;;5021912;28;20497;-45
2021/12/08 09:29:09;;;;;;;10.47;7.53;;;8.10;99.90;;;;;;5022404;28;20458;-48
2021/12/08 09:31:39;;;;;;;12.00;7.57;;;7.90;99.90;;;;;;5022845;28;20511;-48
2021/12/08 09:34:16;;;;;;;12.03;8.17;;;7.90;99.90;;;;;;5022038;28;20572;-46
2021/12/08 09:36:50;;;;;;;8.20;6.60;;;7.90;99.90;;;;;;5001261;28;20451;-49
2021/12/08 09:39:27;;;;;;;15.47;6.87;;;7.90;99.90;;;;;;5021554;28;20455;-48
2021/12/08 09:42:03;;;;;;;9.80;7.97;;;7.90;99.90;;;;;;5016214;28;20445;-44
2021/12/08 09:44:32;;;;;;;12.70;7.80;;;8.00;99.90;;;;;;5002414;28;20445;-47
2021/12/08 09:46:58;;;;;;;8.13;6.37;;;8.10;99.90;;;;;;5023557;28;20462;-48
2021/12/08 09:49:26;;;;;;;9.87;7.77;;;8.10;99.90;;;;;;5021718;28;20438;-50
2021/12/08 09:51:55;;;;;;;12.20;7.73;;;8.20;99.90;;;;;;5017687;28;20473;-46
2021/12/08 09:54:21;;;;;;;10.37;7.60;;;8.10;99.90;;;;;;5022345;28;20872;-48
2021/12/08 09:56:49;;;;;;;11.77;7.17;;;8.30;99.90;;;;;;5019713;28;20446;-47
2021/12/08 09:59:15;;;;;;;10.70;7.83;;;8.30;99.90;;;;;;5023442;28;20454;-47
2021/12/08 10:01:43;;;;;;;10.57;7.27;;;8.30;99.90;;;;;;5018441;28;20485;-50
2021/12/08 10:04:11;;;;;;;13.57;8.13;;;8.20;99.90;;;;;;5020642;28;20443;-47
2021/12/08 10:06:39;;;;;;;11.27;8.93;;;8.20;99.90;;;;;;5020432;28;20870;-50
2021/12/08 10:09:05;;;;;;;11.13;7.97;;;8.30;99.90;;;;;;5024376;28;20546;-50
2021/12/08 10:11:32;;;;;;;14.93;8.30;;;8.20;99.90;;;;;;5019644;28;20470;-49
2021/12/08 10:13:59;;;;;;;8.07;7.23;;;8.30;99.90;;;;;;5020886;28;20440;-46
2021/12/08 10:16:27;;;;;;;9.20;8.10;;;8.10;99.90;;;;;;5022368;28;20462;-50
2021/12/08 10:18:55;;;;;;;13.83;8.17;;;8.00;99.90;;;;;;5021940;28;20468;-46
2021/12/08 10:21:21;;;;;;;10.07;7.37;;;7.80;99.90;;;;;;5019276;28;20514;-48
2021/12/08 10:23:48;;;;;;;15.03;7.70;;;7.70;99.90;;;;;;5020383;28;21166;-50
2021/12/08 10:26:25;;;;;;;18.60;9.13;;;7.70;99.90;;;;;;5021978;28;20508;-49
2021/12/08 10:29:00;;;;;;;19.50;10.50;;;7.70;99.90;;;;;;5005314;28;20550;-50
2021/12/08 10:31:48;;;;;;;13.33;7.43;;;7.60;99.90;;;;;;5021574;28;20466;-47
2021/12/08 10:36:54;;;;;;;18.30;9.53;;;7.70;99.90;;;;;;5021968;28;20446;-52
2021/12/08 10:39:20;;;;;;;18.07;9.63;;;7.70;99.90;;;;;;5022404;28;20541;-49
2021/12/08 10:41:56;;;;;;;12.73;8.53;;;7.70;99.90;;;;;;5022279;28;20526;-48
2021/12/08 10:44:23;;;;;;;14.07;8.27;;;7.70;99.90;;;;;;5021778;28;20214;-52
2021/12/08 10:46:52;;;;;;;14.33;8.80;;;7.80;99.90;;;;;;5021124;28;20473;-50
2021/12/08 10:54:42;;;;;;;18.70;7.20;;;8.20;99.90;;;;;;5021986;28;20950;-50
2021/12/08 10:57:31;;;;;;;13.50;7.20;;;8.20;99.90;;;;;;5019220;28;20453;-48
2021/12/08 11:00:32;;;;;;;19.13;9.07;;;8.40;99.90;;;;;;5020119;28;20431;-50
2021/12/08 11:03:05;;;;;;;13.37;7.90;;;7.90;99.90;;;;;;5004043;28;20951;-48
2021/12/08 11:05:56;;;;;;;16.90;7.53;;;8.10;99.90;;;;;;5018615;28;20439;-48
2021/12/08 11:08:44;;;;;;;14.63;7.53;;;8.00;99.90;;;;;;5021283;28;21017;-50
2021/12/08 11:11:20;;;;;;;13.03;8.90;;;8.00;99.90;;;;;;5019648;28;20462;-48
2021/12/08 11:13:49;;;;;;;17.17;6.70;;;8.20;99.90;;;;;;5020763;28;20455;-48
2021/12/08 11:16:29;;;;;;;13.53;6.80;;;8.00;99.90;;;;;;5001999;28;20470;-51
2021/12/08 11:19:03;;;;;;;12.03;6.73;;;8.00;99.90;;;;;;5020507;28;21181;-51
2021/12/08 11:21:36;;;;;;;8.93;5.93;;;8.20;99.90;;;;;;5020172;28;20442;-45
2021/12/08 11:24:05;;;;;;;11.47;6.53;;;8.30;99.90;;;;;;5018913;28;20426;-51
2021/12/08 11:26:36;;;;;;;10.10;6.47;;;8.40;99.90;;;;;;5020608;28;20545;-48
2021/12/08 11:29:12;;;;;;;8.63;6.20;;;8.50;99.90;;;;;;5021723;28;20464;-47
2021/12/08 11:31:38;;;;;;;8.80;5.23;;;8.60;99.90;;;;;;5016278;28;20442;-48
2021/12/08 11:34:06;;;;;;;5.97;5.37;;;8.60;99.90;;;;;;5018743;28;20796;-48
2021/12/08 11:36:38;;;;;;;7.40;6.47;;;8.60;99.90;;;;;;5020149;28;20192;-47
2021/12/08 11:39:16;;;;;;;8.80;5.53;;;8.70;99.90;;;;;;5019402;28;20467;-47
2021/12/08 11:41:45;;;;;;;6.87;6.17;;;8.40;99.90;;;;;;5018156;28;20438;-46
2021/12/08 11:44:20;;;;;;;7.87;5.90;;;8.20;99.90;;;;;;5017784;28;20876;-45
2021/12/08 11:46:47;;;;;;;9.50;6.60;;;8.10;99.90;;;;;;5017431;28;20497;-44
2021/12/08 11:49:13;;;;;;;9.00;6.67;;;8.10;99.90;;;;;;5020300;28;20925;-50
2021/12/08 11:51:44;;;;;;;11.37;6.73;;;8.30;99.90;;;;;;5020092;28;20515;-44
2021/12/08 11:54:29;;;;;;;7.63;6.80;;;8.30;99.90;;;;;;5021042;28;20185;-47
2021/12/08 11:57:10;;;;;;;9.43;7.33;;;8.10;99.90;;;;;;5019555;28;20443;-47
2021/12/08 11:59:56;;;;;;;7.70;6.90;;;8.10;99.90;;;;;;5017290;28;20470;-45
2021/12/08 12:02:25;;;;;;;10.83;7.40;;;7.70;99.90;;;;;;5017742;28;20482;-47
2021/12/08 12:04:51;;;;;;;9.37;6.93;;;7.80;99.90;;;;;;4999702;28;20536;-50
2021/12/08 12:07:17;;;;;;;10.33;6.67;;;7.90;99.90;;;;;;5021308;28;20557;-47
2021/12/08 12:09:44;;;;;;;7.77;6.20;;;8.00;99.90;;;;;;5017897;28;20199;-45
2021/12/08 12:12:10;;;;;;;8.53;7.30;;;8.20;99.90;;;;;;5020594;28;20469;-47
2021/12/08 12:14:36;;;;;;;10.60;6.90;;;8.10;99.90;;;;;;5019126;28;20426;-46
2021/12/08 12:17:02;;;;;;;10.33;7.50;;;8.20;99.90;;;;;;5019337;28;20938;-46
2021/12/08 12:19:33;;;;;;;9.00;7.10;;;8.30;99.90;;;;;;5019997;28;20228;-46
2021/12/08 12:22:23;;;;;;;8.43;6.47;;;8.40;99.90;;;;;;5019637;28;21077;-49
2021/12/08 12:25:16;;;;;;;10.23;7.47;;;8.50;99.90;;;;;;5018355;28;20546;-50
2021/12/08 12:28:22;;;;;;;9.33;6.53;;;8.30;99.90;;;;;;5019411;28;20537;-50
2021/12/08 12:31:19;;;;;;;10.80;6.93;;;8.30;99.90;;;;;;5002110;28;20434;-48
2021/12/08 12:33:48;;;;;;;10.70;7.17;;;8.30;99.90;;;;;;5017711;28;20928;-47
2021/12/08 12:36:32;;;;;;;9.40;7.07;;;8.00;99.90;;;;;;5020196;28;20665;-47
2021/12/08 12:39:16;;;;;;;10.13;8.10;;;8.20;99.90;;;;;;5019546;28;20466;-44
2021/12/08 12:41:43;;;;;;;12.90;6.53;;;8.20;99.90;;;;;;5019263;28;20513;-52
2021/12/08 12:44:32;;;;;;;10.43;8.40;;;8.30;99.90;;;;;;5018061;28;20439;-45
2021/12/08 12:47:14;;;;;;;8.90;7.97;;;8.10;99.90;;;;;;4984161;28;24147;-45
2021/12/08 12:49:45;;;;;;;9.60;7.47;;;7.80;99.90;;;;;;5017160;28;20991;-47
2021/12/08 12:52:13;;;;;;;9.10;7.03;;;7.80;99.90;;;;;;5016049;28;20522;-45
2021/12/08 12:54:40;;;;;;;10.23;6.70;;;7.80;99.90;;;;;;5019425;28;20902;-44
2021/12/08 12:57:07;;;;;;;9.10;6.77;;;7.90;99.90;;;;;;5019488;28;20836;-44
2021/12/08 12:59:39;;;;;;;8.40;7.07;;;7.90;99.90;;;;;;5013354;28;20530;-45
2021/12/08 13:02:08;;;;;;;8.70;6.03;;;7.90;99.90;;;;;;5019176;28;20518;-47
2021/12/08 13:04:48;;;;;;;13.33;6.80;;;8.20;99.90;;;;;;5017907;28;20830;-44
2021/12/08 13:07:14;;;;;;;7.40;6.40;;;8.10;99.90;;;;;;5016548;28;20466;-49
2021/12/08 13:09:54;;;;;;;9.30;7.00;;;8.00;99.90;;;;;;5017137;28;20879;-46
2021/12/08 13:12:46;;;;;;;9.20;8.00;;;8.10;99.90;;;;;;5015858;28;20690;-51
2021/12/08 13:15:13;;;;;;;9.97;7.30;;;8.10;99.90;;;;;;5012179;28;20445;-45
2021/12/08 13:18:00;;;;;;;10.07;6.60;;;8.30;99.90;;;;;;5019752;28;20532;-48
2021/12/08 13:20:28;;;;;;;9.00;5.83;;;8.10;99.90;;;;;;5018376;28;20439;-46
2021/12/08 13:23:01;;;;;;;9.80;6.90;;;8.10;99.90;;;;;;5019083;28;20440;-45
2021/12/08 13:28:12;;;;;;;7.77;6.43;;;8.10;99.90;;;;;;5019181;28;20474;-47
2021/12/08 13:30:46;;;;;;;13.80;6.97;;;7.90;99.90;;;;;;5019277;28;20794;-49
2021/12/08 13:33:40;;;;;;;11.03;8.10;;;8.00;99.90;;;;;;5018236;28;20516;-49
2021/12/08 13:36:21;;;;;;;12.40;9.27;;;7.90;99.90;;;;;;5016376;28;21011;-46
2021/12/08 13:38:59;;;;;;;13.00;10.30;;;8.20;99.90;;;;;;5021625;28;20455;-47
2021/12/08 13:41:28;;;;;;;9.43;8.43;;;8.30;99.90;;;;;;5021648;28;20525;-45
2021/12/08 13:43:55;;;;;;;10.60;8.50;;;8.20;99.90;;;;;;5022351;28;20500;-46
2021/12/08 13:46:43;;;;;;;9.67;7.73;;;8.00;99.90;;;;;;5024819;28;20423;-48
2021/12/08 13:49:09;;;;;;;10.33;7.57;;;8.00;99.90;;;;;;5020672;28;20812;-45
2021/12/08 13:51:35;;;;;;;10.73;6.93;;;8.00;99.90;;;;;;5022082;28;20487;-45
2021/12/08 13:54:23;;;;;;;8.40;7.17;;;8.00;99.90;;;;;;5023239;28;21013;-46
2021/12/08 13:56:49;;;;;;;9.53;7.00;;;8.10;99.90;;;;;;5020998;28;20192;-45
2021/12/08 13:59:51;;;;;;;8.33;7.30;;;8.20;99.90;;;;;;5021076;28;20458;-45
2021/12/08 14:02:38;;;;;;;9.87;7.50;;;8.20;99.90;;;;;;5022391;28;20184;-49
2021/12/08 14:05:09;;;;;;;7.67;6.77;;;8.30;99.90;;;;;;4984577;28;20546;-45
2021/12/08 14:07:38;;;;;;;7.30;6.43;;;8.10;99.90;;;;;;5023177;28;20499;-46